CYAZ/YAZ METAR and TAF weather

Enter ICAO airport designator
Station Type Date Time Source
CYAZ METAR 2021/02/27 22:00 UTC NOAA

CYAZ 272200Z 32003KT 280V350 15SM BKN042 OVC049 06/M01 A3025 RMK SC5SC3 SLP245


Station Type Date Time Source
CYAZ Decoded METAR 2021/02/27 22:00 UTC NOAA

Tofino Airport, Canada (CYAZ) 49-05N 125-46W
Feb 27, 2021 - 05:00 PM EST / 2021.02.27 2200 UTC
Wind: from the NW (320 degrees) at 3 MPH (3 KT) (direction variable):0
Visibility: 15 mile(s):0
Sky conditions: overcast
Temperature: 42 F (6 C)
Dew Point: 30 F (-1 C)
Relative Humidity: 60%
Pressure (altimeter): 30.25 in. Hg (1024 hPa)
ob: CYAZ 272200Z 32003KT 280V350 15SM BKN042 OVC049 06/M01 A3025 RMK SC5SC3 SLP245
cycle: 22

Station Type Date Time Source
CYAZ TAF 2021/02/27 19:00 UTC NOAA

TAF CYAZ 271838Z 2719/2801 VRB03KT P6SM SCT050 BKN090 OVC120
TEMPO 2719/2722 P6SM -RA BKN030 OVC050
FM272200 10005KT P6SM -RA SCT015 OVC030
TEMPO 2722/2801 4SM -RA BR OVC015
RMK NXT FCST WILL BE ISSUED AT 281645Z

Example: see airport list